sensor_id;sensor_type;location;lat;lon;timestamp;temperature;humidity
75284;HTU21D;63877;48.702;44.594;2022-11-24T00:01:41;3.08;118.99
75284;HTU21D;63877;48.702;44.594;2022-11-24T00:04:10;3.06;118.99
75284;HTU21D;63877;48.702;44.594;2022-11-24T00:06:36;3.02;118.99
75284;HTU21D;63877;48.702;44.594;2022-11-24T00:09:03;3.01;118.99
75284;HTU21D;63877;48.702;44.594;2022-11-24T00:11:32;3.00;118.99
75284;HTU21D;63877;48.702;44.594;2022-11-24T00:13:59;2.98;118.99
75284;HTU21D;63877;48.702;44.594;2022-11-24T00:16:28;2.96;118.99
75284;HTU21D;63877;48.702;44.594;2022-11-24T00:18:56;2.91;118.99
75284;HTU21D;63877;48.702;44.594;2022-11-24T00:21:24;2.90;118.99
75284;HTU21D;63877;48.702;44.594;2022-11-24T00:23:51;2.88;118.99
75284;HTU21D;63877;48.702;44.594;2022-11-24T00:26:22;2.90;118.99
75284;HTU21D;63877;48.702;44.594;2022-11-24T00:28:50;2.93;118.99
75284;HTU21D;63877;48.702;44.594;2022-11-24T00:31:36;2.91;118.99
75284;HTU21D;63877;48.702;44.594;2022-11-24T00:34:05;2.90;118.99
75284;HTU21D;63877;48.702;44.594;2022-11-24T00:36:33;2.91;118.99
75284;HTU21D;63877;48.702;44.594;2022-11-24T00:39:05;2.89;118.99
75284;HTU21D;63877;48.702;44.594;2022-11-24T00:41:32;2.91;118.99
75284;HTU21D;63877;48.702;44.594;2022-11-24T00:43:58;2.91;118.99
75284;HTU21D;63877;48.702;44.594;2022-11-24T00:46:25;2.91;118.99
75284;HTU21D;63877;48.702;44.594;2022-11-24T00:48:52;2.91;118.99
75284;HTU21D;63877;48.702;44.594;2022-11-24T00:51:20;2.91;118.99
75284;HTU21D;63877;48.702;44.594;2022-11-24T00:53:47;2.94;118.99
75284;HTU21D;63877;48.702;44.594;2022-11-24T00:56:13;2.94;118.99
75284;HTU21D;63877;48.702;44.594;2022-11-24T00:58:39;2.95;118.99
75284;HTU21D;63877;48.702;44.594;2022-11-24T01:01:08;2.96;118.99
75284;HTU21D;63877;48.702;44.594;2022-11-24T01:03:35;2.95;118.99
75284;HTU21D;63877;48.702;44.594;2022-11-24T01:06:16;2.94;118.99
75284;HTU21D;63877;48.702;44.594;2022-11-24T01:08:43;2.93;118.99
75284;HTU21D;63877;48.702;44.594;2022-11-24T01:13:41;2.88;118.99
75284;HTU21D;63877;48.702;44.594;2022-11-24T01:16:15;2.86;118.99
75284;HTU21D;63877;48.702;44.594;2022-11-24T01:18:41;2.82;118.99
75284;HTU21D;63877;48.702;44.594;2022-11-24T01:21:07;2.80;118.99
75284;HTU21D;63877;48.702;44.594;2022-11-24T01:23:33;2.80;118.99
75284;HTU21D;63877;48.702;44.594;2022-11-24T01:26:02;2.78;118.99
75284;HTU21D;63877;48.702;44.594;2022-11-24T01:28:28;2.80;118.99
75284;HTU21D;63877;48.702;44.594;2022-11-24T01:30:58;2.78;118.99
75284;HTU21D;63877;48.702;44.594;2022-11-24T01:33:24;2.78;118.99
75284;HTU21D;63877;48.702;44.594;2022-11-24T01:35:51;2.78;118.99
75284;HTU21D;63877;48.702;44.594;2022-11-24T01:38:17;2.78;118.99
75284;HTU21D;63877;48.702;44.594;2022-11-24T01:40:43;2.79;118.99
75284;HTU21D;63877;48.702;44.594;2022-11-24T01:43:20;2.80;118.99
75284;HTU21D;63877;48.702;44.594;2022-11-24T01:45:46;2.81;118.99
75284;HTU21D;63877;48.702;44.594;2022-11-24T01:48:23;2.81;118.99
75284;HTU21D;63877;48.702;44.594;2022-11-24T01:50:57;2.82;118.99
75284;HTU21D;63877;48.702;44.594;2022-11-24T01:53:26;2.81;118.99
75284;HTU21D;63877;48.702;44.594;2022-11-24T01:55:53;2.80;118.99
75284;HTU21D;63877;48.702;44.594;2022-11-24T01:58:22;2.79;118.99
75284;HTU21D;63877;48.702;44.594;2022-11-24T02:00:49;2.78;118.99
75284;HTU21D;63877;48.702;44.594;2022-11-24T02:03:19;2.76;118.99
75284;HTU21D;63877;48.702;44.594;2022-11-24T02:05:59;2.76;118.99
75284;HTU21D;63877;48.702;44.594;2022-11-24T02:08:37;2.75;118.99
75284;HTU21D;63877;48.702;44.594;2022-11-24T02:11:05;2.76;118.99
75284;HTU21D;63877;48.702;44.594;2022-11-24T02:13:35;2.76;118.99
75284;HTU21D;63877;48.702;44.594;2022-11-24T02:16:05;2.76;118.99
75284;HTU21D;63877;48.702;44.594;2022-11-24T02:18:32;2.75;118.99
75284;HTU21D;63877;48.702;44.594;2022-11-24T02:20:58;2.78;118.99
75284;HTU21D;63877;48.702;44.594;2022-11-24T02:28:58;2.75;118.99
75284;HTU21D;63877;48.702;44.594;2022-11-24T02:31:24;2.76;118.99
75284;HTU21D;63877;48.702;44.594;2022-11-24T02:33:51;2.75;118.99
75284;HTU21D;63877;48.702;44.594;2022-11-24T02:36:17;2.73;118.99
75284;HTU21D;63877;48.702;44.594;2022-11-24T02:38:43;2.72;118.99
75284;HTU21D;63877;48.702;44.594;2022-11-24T02:41:15;2.73;118.99
75284;HTU21D;63877;48.702;44.594;2022-11-24T02:43:47;2.71;118.99
75284;HTU21D;63877;48.702;44.594;2022-11-24T02:46:14;2.71;118.99
75284;HTU21D;63877;48.702;44.594;2022-11-24T02:48:40;2.71;118.99
75284;HTU21D;63877;48.702;44.594;2022-11-24T02:51:06;2.70;118.99
75284;HTU21D;63877;48.702;44.594;2022-11-24T02:53:32;2.69;118.99
75284;HTU21D;63877;48.702;44.594;2022-11-24T02:55:59;2.70;118.99
75284;HTU21D;63877;48.702;44.594;2022-11-24T02:58:25;2.68;118.99
75284;HTU21D;63877;48.702;44.594;2022-11-24T03:00:51;2.69;118.99
75284;HTU21D;63877;48.702;44.594;2022-11-24T03:03:20;2.69;118.99
75284;HTU21D;63877;48.702;44.594;2022-11-24T03:05:47;2.68;118.99
75284;HTU21D;63877;48.702;44.594;2022-11-24T03:08:13;2.67;118.99
75284;HTU21D;63877;48.702;44.594;2022-11-24T03:10:39;2.67;118.99
75284;HTU21D;63877;48.702;44.594;2022-11-24T03:13:05;2.64;118.99
75284;HTU21D;63877;48.702;44.594;2022-11-24T03:15:31;2.62;118.99
75284;HTU21D;63877;48.702;44.594;2022-11-24T03:17:57;2.61;118.99
75284;HTU21D;63877;48.702;44.594;2022-11-24T03:20:24;2.60;118.99
75284;HTU21D;63877;48.702;44.594;2022-11-24T03:22:50;2.61;118.99
75284;HTU21D;63877;48.702;44.594;2022-11-24T03:25:17;2.61;118.99
75284;HTU21D;63877;48.702;44.594;2022-11-24T03:27:44;2.60;118.99
75284;HTU21D;63877;48.702;44.594;2022-11-24T03:30:10;2.62;118.99
75284;HTU21D;63877;48.702;44.594;2022-11-24T03:32:36;2.61;118.99
75284;HTU21D;63877;48.702;44.594;2022-11-24T03:35:03;2.64;118.99
75284;HTU21D;63877;48.702;44.594;2022-11-24T03:37:29;2.62;118.99
75284;HTU21D;63877;48.702;44.594;2022-11-24T03:39:55;2.64;118.99
75284;HTU21D;63877;48.702;44.594;2022-11-24T03:42:21;2.65;118.99
75284;HTU21D;63877;48.702;44.594;2022-11-24T03:44:47;2.64;118.99
75284;HTU21D;63877;48.702;44.594;2022-11-24T03:47:13;2.64;118.99
75284;HTU21D;63877;48.702;44.594;2022-11-24T03:49:40;2.60;118.99
75284;HTU21D;63877;48.702;44.594;2022-11-24T03:52:06;2.62;118.99
75284;HTU21D;63877;48.702;44.594;2022-11-24T03:54:32;2.62;118.99
75284;HTU21D;63877;48.702;44.594;2022-11-24T03:56:59;2.64;118.99
75284;HTU21D;63877;48.702;44.594;2022-11-24T03:59:25;2.62;118.99
75284;HTU21D;63877;48.702;44.594;2022-11-24T04:01:51;2.61;118.99
75284;HTU21D;63877;48.702;44.594;2022-11-24T04:04:17;2.62;118.99
75284;HTU21D;63877;48.702;44.594;2022-11-24T04:06:43;2.61;118.99
75284;HTU21D;63877;48.702;44.594;2022-11-24T04:09:09;2.60;118.99
75284;HTU21D;63877;48.702;44.594;2022-11-24T04:11:35;2.60;118.99
75284;HTU21D;63877;48.702;44.594;2022-11-24T04:14:20;2.59;118.99
75284;HTU21D;63877;48.702;44.594;2022-11-24T04:16:46;2.56;118.99
75284;HTU21D;63877;48.702;44.594;2022-11-24T04:19:11;2.58;118.99
75284;HTU21D;63877;48.702;44.594;2022-11-24T04:21:37;2.57;118.99
75284;HTU21D;63877;48.702;44.594;2022-11-24T04:24:03;2.58;118.99
75284;HTU21D;63877;48.702;44.594;2022-11-24T04:26:29;2.58;118.99
75284;HTU21D;63877;48.702;44.594;2022-11-24T04:28:55;2.58;118.99
75284;HTU21D;63877;48.702;44.594;2022-11-24T04:31:21;2.58;118.99
75284;HTU21D;63877;48.702;44.594;2022-11-24T04:33:47;2.59;118.99
75284;HTU21D;63877;48.702;44.594;2022-11-24T04:36:13;2.62;118.99
75284;HTU21D;63877;48.702;44.594;2022-11-24T04:38:39;2.62;118.99
75284;HTU21D;63877;48.702;44.594;2022-11-24T04:41:05;2.65;118.99
75284;HTU21D;63877;48.702;44.594;2022-11-24T04:43:31;2.65;118.99
75284;HTU21D;63877;48.702;44.594;2022-11-24T04:46:00;2.64;118.99
75284;HTU21D;63877;48.702;44.594;2022-11-24T04:48:27;2.64;118.99
75284;HTU21D;63877;48.702;44.594;2022-11-24T04:50:54;2.61;118.99
75284;HTU21D;63877;48.702;44.594;2022-11-24T04:53:20;2.60;118.99
75284;HTU21D;63877;48.702;44.594;2022-11-24T04:55:46;2.60;118.99
75284;HTU21D;63877;48.702;44.594;2022-11-24T04:58:12;2.60;118.99
75284;HTU21D;63877;48.702;44.594;2022-11-24T05:00:39;2.65;118.99
75284;HTU21D;63877;48.702;44.594;2022-11-24T05:03:05;2.66;118.99
75284;HTU21D;63877;48.702;44.594;2022-11-24T05:05:31;2.66;118.99
75284;HTU21D;63877;48.702;44.594;2022-11-24T05:08:00;2.66;118.99
75284;HTU21D;63877;48.702;44.594;2022-11-24T05:10:26;2.66;118.99
75284;HTU21D;63877;48.702;44.594;2022-11-24T05:13:08;2.65;118.99
75284;HTU21D;63877;48.702;44.594;2022-11-24T05:15:36;2.66;118.99
75284;HTU21D;63877;48.702;44.594;2022-11-24T05:18:07;2.67;118.99
75284;HTU21D;63877;48.702;44.594;2022-11-24T05:20:34;2.68;118.99
75284;HTU21D;63877;48.702;44.594;2022-11-24T05:23:04;2.68;118.99
75284;HTU21D;63877;48.702;44.594;2022-11-24T05:25:31;2.70;118.99
75284;HTU21D;63877;48.702;44.594;2022-11-24T05:28:05;2.71;118.99
75284;HTU21D;63877;48.702;44.594;2022-11-24T05:30:33;2.72;118.99
75284;HTU21D;63877;48.702;44.594;2022-11-24T05:33:03;2.74;118.99
75284;HTU21D;63877;48.702;44.594;2022-11-24T05:35:30;2.76;118.99
75284;HTU21D;63877;48.702;44.594;2022-11-24T05:37:57;2.74;118.99
75284;HTU21D;63877;48.702;44.594;2022-11-24T05:40:23;2.74;118.99
75284;HTU21D;63877;48.702;44.594;2022-11-24T05:42:50;2.72;118.99
75284;HTU21D;63877;48.702;44.594;2022-11-24T05:45:18;2.75;118.99
75284;HTU21D;63877;48.702;44.594;2022-11-24T05:47:46;2.76;118.99
75284;HTU21D;63877;48.702;44.594;2022-11-24T05:50:14;2.79;118.99
75284;HTU21D;63877;48.702;44.594;2022-11-24T05:52:40;2.78;118.99
75284;HTU21D;63877;48.702;44.594;2022-11-24T05:55:07;2.79;118.99
75284;HTU21D;63877;48.702;44.594;2022-11-24T05:57:34;2.78;118.99
75284;HTU21D;63877;48.702;44.594;2022-11-24T06:00:00;2.78;118.99
75284;HTU21D;63877;48.702;44.594;2022-11-24T06:02:26;2.78;118.99
75284;HTU21D;63877;48.702;44.594;2022-11-24T06:04:52;2.78;118.99
75284;HTU21D;63877;48.702;44.594;2022-11-24T06:07:18;2.76;118.99
75284;HTU21D;63877;48.702;44.594;2022-11-24T06:09:44;2.73;118.99
75284;HTU21D;63877;48.702;44.594;2022-11-24T06:12:12;2.74;118.99
75284;HTU21D;63877;48.702;44.594;2022-11-24T06:14:38;2.76;118.99
75284;HTU21D;63877;48.702;44.594;2022-11-24T06:17:04;2.79;118.99
75284;HTU21D;63877;48.702;44.594;2022-11-24T06:19:30;2.80;118.99
75284;HTU21D;63877;48.702;44.594;2022-11-24T06:21:56;2.81;118.99
75284;HTU21D;63877;48.702;44.594;2022-11-24T06:24:22;2.80;118.99
75284;HTU21D;63877;48.702;44.594;2022-11-24T06:26:48;2.76;118.99
75284;HTU21D;63877;48.702;44.594;2022-11-24T06:29:14;2.78;118.99
75284;HTU21D;63877;48.702;44.594;2022-11-24T06:31:40;2.76;118.99
75284;HTU21D;63877;48.702;44.594;2022-11-24T06:34:07;2.76;118.99
75284;HTU21D;63877;48.702;44.594;2022-11-24T06:36:39;2.79;118.99
75284;HTU21D;63877;48.702;44.594;2022-11-24T06:39:05;2.80;118.99
75284;HTU21D;63877;48.702;44.594;2022-11-24T06:41:31;2.80;118.99
75284;HTU21D;63877;48.702;44.594;2022-11-24T06:43:57;2.80;118.99
75284;HTU21D;63877;48.702;44.594;2022-11-24T06:46:23;2.80;118.99
75284;HTU21D;63877;48.702;44.594;2022-11-24T06:48:52;2.79;118.99
75284;HTU21D;63877;48.702;44.594;2022-11-24T06:51:19;2.80;118.99
75284;HTU21D;63877;48.702;44.594;2022-11-24T06:53:45;2.80;118.99
75284;HTU21D;63877;48.702;44.594;2022-11-24T06:56:12;2.82;118.99
75284;HTU21D;63877;48.702;44.594;2022-11-24T06:58:44;2.84;118.99
75284;HTU21D;63877;48.702;44.594;2022-11-24T07:01:16;2.85;118.99
75284;HTU21D;63877;48.702;44.594;2022-11-24T07:03:43;2.85;118.99
75284;HTU21D;63877;48.702;44.594;2022-11-24T07:06:09;2.86;118.99
75284;HTU21D;63877;48.702;44.594;2022-11-24T07:08:35;2.88;118.99
75284;HTU21D;63877;48.702;44.594;2022-11-24T07:11:05;2.86;118.99
75284;HTU21D;63877;48.702;44.594;2022-11-24T07:13:32;2.86;118.99
75284;HTU21D;63877;48.702;44.594;2022-11-24T07:15:59;2.86;118.99
75284;HTU21D;63877;48.702;44.594;2022-11-24T07:18:25;2.86;118.99
75284;HTU21D;63877;48.702;44.594;2022-11-24T07:20:51;2.85;118.99
75284;HTU21D;63877;48.702;44.594;2022-11-24T07:23:17;2.85;118.99
75284;HTU21D;63877;48.702;44.594;2022-11-24T07:25:43;2.87;118.99
75284;HTU21D;63877;48.702;44.594;2022-11-24T07:28:09;2.93;118.99
75284;HTU21D;63877;48.702;44.594;2022-11-24T07:30:34;2.96;118.99
75284;HTU21D;63877;48.702;44.594;2022-11-24T07:33:01;3.02;118.99
75284;HTU21D;63877;48.702;44.594;2022-11-24T07:35:28;3.03;118.99
75284;HTU21D;63877;48.702;44.594;2022-11-24T07:37:57;3.03;118.99
75284;HTU21D;63877;48.702;44.594;2022-11-24T07:40:24;3.01;118.99
75284;HTU21D;63877;48.702;44.594;2022-11-24T07:42:51;3.03;118.99
75284;HTU21D;63877;48.702;44.594;2022-11-24T07:45:17;3.08;118.99
75284;HTU21D;63877;48.702;44.594;2022-11-24T07:47:43;3.09;118.99
75284;HTU21D;63877;48.702;44.594;2022-11-24T07:50:09;3.09;118.99
75284;HTU21D;63877;48.702;44.594;2022-11-24T07:52:36;3.05;118.99
75284;HTU21D;63877;48.702;44.594;2022-11-24T07:55:02;3.03;118.99
75284;HTU21D;63877;48.702;44.594;2022-11-24T07:57:28;3.01;118.99
75284;HTU21D;63877;48.702;44.594;2022-11-24T07:59:54;3.01;118.99
75284;HTU21D;63877;48.702;44.594;2022-11-24T08:02:20;3.00;118.99
75284;HTU21D;63877;48.702;44.594;2022-11-24T08:04:46;3.00;118.99
75284;HTU21D;63877;48.702;44.594;2022-11-24T08:07:12;3.02;118.99
75284;HTU21D;63877;48.702;44.594;2022-11-24T08:09:38;3.05;118.99
75284;HTU21D;63877;48.702;44.594;2022-11-24T08:12:04;3.06;118.99
75284;HTU21D;63877;48.702;44.594;2022-11-24T08:14:30;3.09;118.99
75284;HTU21D;63877;48.702;44.594;2022-11-24T08:16:56;3.09;118.99
75284;HTU21D;63877;48.702;44.594;2022-11-24T08:19:22;3.09;118.99
75284;HTU21D;63877;48.702;44.594;2022-11-24T08:21:49;3.10;118.99
75284;HTU21D;63877;48.702;44.594;2022-11-24T08:24:15;3.15;118.99
75284;HTU21D;63877;48.702;44.594;2022-11-24T08:26:42;3.15;118.99
75284;HTU21D;63877;48.702;44.594;2022-11-24T08:29:08;3.15;118.99
75284;HTU21D;63877;48.702;44.594;2022-11-24T08:31:37;3.17;118.99
75284;HTU21D;63877;48.702;44.594;2022-11-24T08:34:04;3.16;118.99
75284;HTU21D;63877;48.702;44.594;2022-11-24T08:36:31;3.17;118.99
75284;HTU21D;63877;48.702;44.594;2022-11-24T08:38:59;3.25;118.99
75284;HTU21D;63877;48.702;44.594;2022-11-24T08:41:25;3.27;118.99
75284;HTU21D;63877;48.702;44.594;2022-11-24T08:43:53;3.34;118.99
75284;HTU21D;63877;48.702;44.594;2022-11-24T08:46:19;3.41;118.99
75284;HTU21D;63877;48.702;44.594;2022-11-24T08:48:50;3.40;118.99
75284;HTU21D;63877;48.702;44.594;2022-11-24T08:51:19;3.41;118.99
75284;HTU21D;63877;48.702;44.594;2022-11-24T08:53:45;3.38;118.99
75284;HTU21D;63877;48.702;44.594;2022-11-24T08:56:12;3.35;118.99
75284;HTU21D;63877;48.702;44.594;2022-11-24T08:58:38;3.35;118.99
75284;HTU21D;63877;48.702;44.594;2022-11-24T09:01:13;3.38;118.99
75284;HTU21D;63877;48.702;44.594;2022-11-24T09:03:40;3.38;118.99
75284;HTU21D;63877;48.702;44.594;2022-11-24T09:06:07;3.40;118.99
75284;HTU21D;63877;48.702;44.594;2022-11-24T09:08:34;3.40;118.99
75284;HTU21D;63877;48.702;44.594;2022-11-24T09:11:01;3.41;118.99
75284;HTU21D;63877;48.702;44.594;2022-11-24T09:13:27;3.44;118.99
75284;HTU21D;63877;48.702;44.594;2022-11-24T09:15:53;3.48;118.99
75284;HTU21D;63877;48.702;44.594;2022-11-24T09:18:19;3.54;118.99
75284;HTU21D;63877;48.702;44.594;2022-11-24T09:20:45;3.61;118.99
75284;HTU21D;63877;48.702;44.594;2022-11-24T09:23:11;3.69;118.99
75284;HTU21D;63877;48.702;44.594;2022-11-24T09:25:37;3.67;118.99
75284;HTU21D;63877;48.702;44.594;2022-11-24T09:28:03;3.65;118.99
75284;HTU21D;63877;48.702;44.594;2022-11-24T09:30:29;3.64;118.99
75284;HTU21D;63877;48.702;44.594;2022-11-24T09:32:55;3.64;118.99
75284;HTU21D;63877;48.702;44.594;2022-11-24T09:35:21;3.67;118.99
75284;HTU21D;63877;48.702;44.594;2022-11-24T09:37:47;3.65;118.99
75284;HTU21D;63877;48.702;44.594;2022-11-24T09:40:15;3.62;118.99
75284;HTU21D;63877;48.702;44.594;2022-11-24T09:43:01;3.58;118.99
75284;HTU21D;63877;48.702;44.594;2022-11-24T09:48:27;3.61;118.99
75284;HTU21D;63877;48.702;44.594;2022-11-24T09:50:57;3.63;118.99
75284;HTU21D;63877;48.702;44.594;2022-11-24T09:53:53;3.63;118.99
75284;HTU21D;63877;48.702;44.594;2022-11-24T09:56:25;3.64;118.99
75284;HTU21D;63877;48.702;44.594;2022-11-24T09:59:05;3.69;118.99
75284;HTU21D;63877;48.702;44.594;2022-11-24T10:01:38;3.71;118.99
75284;HTU21D;63877;48.702;44.594;2022-11-24T10:04:14;3.71;118.99
75284;HTU21D;63877;48.702;44.594;2022-11-24T10:09:47;3.72;118.99
75284;HTU21D;63877;48.702;44.594;2022-11-24T10:26:35;3.86;118.99
75284;HTU21D;63877;48.702;44.594;2022-11-24T10:32:34;3.84;118.99
75284;HTU21D;63877;48.702;44.594;2022-11-24T10:35:23;3.76;118.99
75284;HTU21D;63877;48.702;44.594;2022-11-24T10:37:59;3.73;118.99
75284;HTU21D;63877;48.702;44.594;2022-11-24T10:40:43;3.73;118.99
75284;HTU21D;63877;48.702;44.594;2022-11-24T10:43:11;3.71;118.99
75284;HTU21D;63877;48.702;44.594;2022-11-24T10:45:38;3.68;118.99
75284;HTU21D;63877;48.702;44.594;2022-11-24T10:48:25;3.64;118.99
75284;HTU21D;63877;48.702;44.594;2022-11-24T10:50:53;3.65;118.99
75284;HTU21D;63877;48.702;44.594;2022-11-24T10:53:31;3.69;118.99
75284;HTU21D;63877;48.702;44.594;2022-11-24T10:56:02;3.69;118.99
75284;HTU21D;63877;48.702;44.594;2022-11-24T10:58:34;3.70;118.99
75284;HTU21D;63877;48.702;44.594;2022-11-24T11:01:26;3.70;118.99
75284;HTU21D;63877;48.702;44.594;2022-11-24T11:03:55;3.71;118.99
75284;HTU21D;63877;48.702;44.594;2022-11-24T11:06:30;3.75;118.99
75284;HTU21D;63877;48.702;44.594;2022-11-24T11:11:32;3.83;118.99
75284;HTU21D;63877;48.702;44.594;2022-11-24T11:14:03;3.84;118.99
75284;HTU21D;63877;48.702;44.594;2022-11-24T11:18:55;3.78;118.99
75284;HTU21D;63877;48.702;44.594;2022-11-24T11:21:35;3.83;118.99
75284;HTU21D;63877;48.702;44.594;2022-11-24T11:24:15;3.86;118.99
75284;HTU21D;63877;48.702;44.594;2022-11-24T11:26:43;3.83;118.99
75284;HTU21D;63877;48.702;44.594;2022-11-24T11:29:15;3.80;118.99
75284;HTU21D;63877;48.702;44.594;2022-11-24T11:31:41;3.80;118.99
75284;HTU21D;63877;48.702;44.594;2022-11-24T11:34:20;3.85;118.99
75284;HTU21D;63877;48.702;44.594;2022-11-24T11:36:52;3.86;118.99
75284;HTU21D;63877;48.702;44.594;2022-11-24T11:42:04;3.90;118.99
75284;HTU21D;63877;48.702;44.594;2022-11-24T11:44:45;3.91;118.99
75284;HTU21D;63877;48.702;44.594;2022-11-24T11:49:46;3.88;118.99
75284;HTU21D;63877;48.702;44.594;2022-11-24T11:52:44;3.90;118.99
75284;HTU21D;63877;48.702;44.594;2022-11-24T11:58:31;3.90;118.99
75284;HTU21D;63877;48.702;44.594;2022-11-24T12:07:11;3.91;118.99
75284;HTU21D;63877;48.702;44.594;2022-11-24T12:17:53;3.85;118.99
75284;HTU21D;63877;48.702;44.594;2022-11-24T12:23:04;3.77;118.99
75284;HTU21D;63877;48.702;44.594;2022-11-24T12:44:53;3.61;118.99
75284;HTU21D;63877;48.702;44.594;2022-11-24T12:47:35;3.61;118.99
75284;HTU21D;63877;48.702;44.594;2022-11-24T12:50:09;3.63;118.99
75284;HTU21D;63877;48.702;44.594;2022-11-24T12:52:47;3.64;118.99
75284;HTU21D;63877;48.702;44.594;2022-11-24T12:55:18;3.68;118.99
75284;HTU21D;63877;48.702;44.594;2022-11-24T13:09:12;3.57;118.99
75284;HTU21D;63877;48.702;44.594;2022-11-24T13:16:54;3.55;118.99
75284;HTU21D;63877;48.702;44.594;2022-11-24T13:19:35;3.57;118.99
75284;HTU21D;63877;48.702;44.594;2022-11-24T13:24:37;3.59;118.99
75284;HTU21D;63877;48.702;44.594;2022-11-24T13:29:44;3.61;118.99
75284;HTU21D;63877;48.702;44.594;2022-11-24T13:42:23;3.61;118.99
75284;HTU21D;63877;48.702;44.594;2022-11-24T13:44:55;3.61;118.99
75284;HTU21D;63877;48.702;44.594;2022-11-24T13:52:53;3.57;118.99
75284;HTU21D;63877;48.702;44.594;2022-11-24T13:55:35;3.57;118.99
75284;HTU21D;63877;48.702;44.594;2022-11-24T14:00:59;3.60;118.99
75284;HTU21D;63877;48.702;44.594;2022-11-24T14:03:29;3.59;118.99
75284;HTU21D;63877;48.702;44.594;2022-11-24T14:05:57;3.60;118.99
75284;HTU21D;63877;48.702;44.594;2022-11-24T14:08:30;3.60;118.99
75284;HTU21D;63877;48.702;44.594;2022-11-24T14:10:59;3.58;118.99
75284;HTU21D;63877;48.702;44.594;2022-11-24T14:13:27;3.58;118.99
75284;HTU21D;63877;48.702;44.594;2022-11-24T14:16:17;3.57;118.99
75284;HTU21D;63877;48.702;44.594;2022-11-24T14:18:45;3.55;118.99
75284;HTU21D;63877;48.702;44.594;2022-11-24T14:21:29;3.54;118.99
75284;HTU21D;63877;48.702;44.594;2022-11-24T14:24:30;3.50;118.99
75284;HTU21D;63877;48.702;44.594;2022-11-24T14:26:56;3.48;118.99
75284;HTU21D;63877;48.702;44.594;2022-11-24T14:29:23;3.49;118.99
75284;HTU21D;63877;48.702;44.594;2022-11-24T14:32:01;3.48;118.99
75284;HTU21D;63877;48.702;44.594;2022-11-24T14:34:30;3.50;118.99
75284;HTU21D;63877;48.702;44.594;2022-11-24T14:36:57;3.53;118.99
75284;HTU21D;63877;48.702;44.594;2022-11-24T14:39:26;3.52;118.99
75284;HTU21D;63877;48.702;44.594;2022-11-24T14:42:14;3.55;118.99
75284;HTU21D;63877;48.702;44.594;2022-11-24T14:49:43;3.54;118.99
75284;HTU21D;63877;48.702;44.594;2022-11-24T14:52:14;3.52;118.99
75284;HTU21D;63877;48.702;44.594;2022-11-24T14:54:51;3.49;118.99
75284;HTU21D;63877;48.702;44.594;2022-11-24T14:57:36;3.48;118.99
75284;HTU21D;63877;48.702;44.594;2022-11-24T15:00:26;3.48;118.99
75284;HTU21D;63877;48.702;44.594;2022-11-24T15:05:22;3.46;118.99
75284;HTU21D;63877;48.702;44.594;2022-11-24T15:08:00;3.45;118.99
75284;HTU21D;63877;48.702;44.594;2022-11-24T15:10:33;3.42;118.99
75284;HTU21D;63877;48.702;44.594;2022-11-24T15:13:05;3.41;118.99
75284;HTU21D;63877;48.702;44.594;2022-11-24T15:15:38;3.38;118.99
75284;HTU21D;63877;48.702;44.594;2022-11-24T15:18:17;3.36;118.99
75284;HTU21D;63877;48.702;44.594;2022-11-24T15:20:46;3.35;118.99
75284;HTU21D;63877;48.702;44.594;2022-11-24T15:23:28;3.38;118.99
75284;HTU21D;63877;48.702;44.594;2022-11-24T15:28:28;3.43;118.99
75284;HTU21D;63877;48.702;44.594;2022-11-24T15:30:58;3.44;118.99
75284;HTU21D;63877;48.702;44.594;2022-11-24T15:33:25;3.44;118.99
75284;HTU21D;63877;48.702;44.594;2022-11-24T15:35:51;3.43;118.99
75284;HTU21D;63877;48.702;44.594;2022-11-24T15:38:17;3.41;118.99
75284;HTU21D;63877;48.702;44.594;2022-11-24T15:40:45;3.40;118.99
75284;HTU21D;63877;48.702;44.594;2022-11-24T15:45:49;3.36;118.99
75284;HTU21D;63877;48.702;44.594;2022-11-24T15:48:15;3.36;118.99
75284;HTU21D;63877;48.702;44.594;2022-11-24T15:50:41;3.36;118.99
75284;HTU21D;63877;48.702;44.594;2022-11-24T15:53:16;3.39;118.99
75284;HTU21D;63877;48.702;44.594;2022-11-24T15:55:43;3.39;118.99
75284;HTU21D;63877;48.702;44.594;2022-11-24T15:58:11;3.39;118.99
75284;HTU21D;63877;48.702;44.594;2022-11-24T16:00:38;3.38;118.99
75284;HTU21D;63877;48.702;44.594;2022-11-24T16:03:04;3.39;118.99
75284;HTU21D;63877;48.702;44.594;2022-11-24T16:05:31;3.40;118.99
75284;HTU21D;63877;48.702;44.594;2022-11-24T16:07:57;3.39;118.99
75284;HTU21D;63877;48.702;44.594;2022-11-24T16:10:30;3.39;118.99
75284;HTU21D;63877;48.702;44.594;2022-11-24T16:12:57;3.39;118.99
75284;HTU21D;63877;48.702;44.594;2022-11-24T16:15:23;3.38;118.99
75284;HTU21D;63877;48.702;44.594;2022-11-24T16:17:49;3.35;118.99
75284;HTU21D;63877;48.702;44.594;2022-11-24T16:20:16;3.36;118.99
75284;HTU21D;63877;48.702;44.594;2022-11-24T16:22:41;3.35;118.99
75284;HTU21D;63877;48.702;44.594;2022-11-24T16:25:08;3.35;118.99
75284;HTU21D;63877;48.702;44.594;2022-11-24T16:27:34;3.36;118.99
75284;HTU21D;63877;48.702;44.594;2022-11-24T16:30:00;3.38;118.99
75284;HTU21D;63877;48.702;44.594;2022-11-24T16:32:26;3.39;118.99
75284;HTU21D;63877;48.702;44.594;2022-11-24T16:34:53;3.39;118.99
75284;HTU21D;63877;48.702;44.594;2022-11-24T16:37:18;3.36;118.99
75284;HTU21D;63877;48.702;44.594;2022-11-24T16:39:47;3.39;118.99
75284;HTU21D;63877;48.702;44.594;2022-11-24T16:42:14;3.38;118.99
75284;HTU21D;63877;48.702;44.594;2022-11-24T16:44:40;3.38;118.99
75284;HTU21D;63877;48.702;44.594;2022-11-24T16:47:06;3.38;118.99
75284;HTU21D;63877;48.702;44.594;2022-11-24T16:49:32;3.38;118.99
75284;HTU21D;63877;48.702;44.594;2022-11-24T16:51:58;3.40;118.99
75284;HTU21D;63877;48.702;44.594;2022-11-24T16:54:24;3.40;118.99
75284;HTU21D;63877;48.702;44.594;2022-11-24T16:56:50;3.40;118.99
75284;HTU21D;63877;48.702;44.594;2022-11-24T16:59:16;3.41;118.99
75284;HTU21D;63877;48.702;44.594;2022-11-24T17:01:42;3.40;118.99
75284;HTU21D;63877;48.702;44.594;2022-11-24T17:04:13;3.41;118.99
75284;HTU21D;63877;48.702;44.594;2022-11-24T17:06:39;3.41;118.99
75284;HTU21D;63877;48.702;44.594;2022-11-24T17:09:05;3.41;118.99
75284;HTU21D;63877;48.702;44.594;2022-11-24T17:11:31;3.41;118.99
75284;HTU21D;63877;48.702;44.594;2022-11-24T17:13:57;3.41;118.99
75284;HTU21D;63877;48.702;44.594;2022-11-24T17:16:24;3.44;118.99
75284;HTU21D;63877;48.702;44.594;2022-11-24T17:18:51;3.45;118.99
75284;HTU21D;63877;48.702;44.594;2022-11-24T17:21:19;3.46;118.99
75284;HTU21D;63877;48.702;44.594;2022-11-24T17:23:45;3.45;118.99
75284;HTU21D;63877;48.702;44.594;2022-11-24T17:26:15;3.45;118.99
75284;HTU21D;63877;48.702;44.594;2022-11-24T17:28:42;3.45;118.99